Skip Navigation Links
NOAA logo - Click to go to the NOAA homepage
NOAA's National Weather Service
Alaska Aviation Weather Unit
  NWS logo - Click to go to the NWS homepage
Left Navbar Graphic     00 AKDT = 08 GMT

   
NOAA is celebrating 200 years of science, service, and stewardship. Visit the NOAA 200th celebration Web site to learn more.
USA.gov is the U.S. Government's official Web portal to all Federal, state and local government Web resources and services.
Facebook
NWS on Facebook

Important Change Regarding the AAWU Web Presence

 

Over the last several months, the AAWU has been working to navigate its webpages to a nationally supported server. Security, as well as other needs, have necessitated the change.  We have been given an extension for the site changeover while we diligently work at addressing feedback received. As of July 14, 2017, aawu.arh.noaa.gov will be discontinued. The new AAWU web address is weather.gov/aawu. It is now live and will run in-parallel with the old site until it is discontinued on July 14, 2017. Please continue to send any feedback or questions regarding the new webpages to nws.ar.aawu.webauthors@noaa.gov.  Thank you for your patience during this time of transition.
AAWU Home :: Display TAF Add Bookmark
TAF CYDB 102338Z 1100/1112 11010KT P6SM FEW060 SCT140 BKN250
    FM110600 13010KT P6SM BKN100
    RMK NXT FCST BY 110600Z=

METAR CYDB 240200Z AUTO 14008G16KT 9SM CLR 14/02 A2959 RMK SLP046 DENSITY ALT 3400FT= METAR CYDB 240300Z AUTO 12007KT 9SM CLR 12/02 A2958 RMK SLP046 DENSITY ALT 3200FT= METAR CYDB 240400Z AUTO 13009KT 9SM CLR 11/02 A2958 RMK SLP045 DENSITY ALT 3100FT= METAR CYDB 240500Z AUTO 14006KT 9SM CLR 08/02 A2958 RMK SLP044 DENSITY ALT 2800FT= METAR CYDB 240600Z AUTO 13008KT 9SM CLR 09/02 A2957 RMK SLP038 DENSITY ALT 2900FT= METAR CYDB 240700Z AUTO 14006KT 9SM CLR 08/02 A2957 RMK SLP036 DENSITY ALT 2800FT= METAR CYDB 240800Z AUTO 14008KT 9SM CLR 07/02 A2957 RMK SLP036 DENSITY ALT 2700FT=
 Alaska TAF Map

NOAA's National Weather Service
Alaska Aviation Weather Unit
6930 Sand Lake Road
Anchorage, AK 99502-1845
Disclaimer
Credits
Glossary
Privacy Policy
About Us
Career Opportunities
Contact AAWU Internet Services Site last modified: April, 17th 2012